Time;durP1;ratioP1;P1;durP2;ratioP2;P2;SDS_P1;SDS_P2;PMS_P1;PMS_P2;Temp;Humidity;BMP_temperature;BMP_pressure;BME280_temperature;BME280_humidity;BME280_pressure;Samples;Min_cycle;Max_cycle;Signal;HPM_P1;HPM_P2
2023/04/13 00:02:02;;;;;;;1.07;0.80;;;;;;;;;;4981435;28;20199;-68
2023/04/13 00:04:29;;;;;;;0.80;0.80;;;;;;;;;;4992178;28;20183;-68
2023/04/13 00:06:55;;;;;;;12.20;1.37;;;;;;;;;;4991233;28;20318;-68
2023/04/13 00:09:20;;;;;;;1.53;0.90;;;;;;;;;;4985904;28;20295;-68
2023/04/13 00:11:48;;;;;;;1.63;0.70;;;;;;;;;;4992583;28;20171;-67
2023/04/13 00:14:13;;;;;;;2.23;1.00;;;;;;;;;;4986218;28;20693;-67
2023/04/13 00:16:38;;;;;;;0.93;0.83;;;;;;;;;;4988112;28;20176;-67
2023/04/13 00:19:04;;;;;;;1.73;0.97;;;;;;;;;;4989167;28;20690;-67
2023/04/13 00:21:29;;;;;;;0.90;0.80;;;;;;;;;;4992542;28;20226;-68
2023/04/13 00:23:54;;;;;;;1.03;0.70;;;;;;;;;;4992028;28;20648;-68
2023/04/13 00:26:20;;;;;;;1.03;0.80;;;;;;;;;;4992177;28;20526;-69
2023/04/13 00:28:46;;;;;;;4.80;0.93;;;;;;;;;;4990389;28;20214;-69
2023/04/13 00:31:11;;;;;;;1.47;0.93;;;;;;;;;;4988083;28;20187;-69
2023/04/13 00:33:36;;;;;;;2.73;1.03;;;;;;;;;;4990414;28;20184;-68
2023/04/13 00:36:01;;;;;;;1.67;0.80;;;;;;;;;;4990252;28;20179;-68
2023/04/13 00:38:28;;;;;;;2.00;0.90;;;;;;;;;;4991658;28;20735;-69
2023/04/13 00:40:54;;;;;;;3.43;1.13;;;;;;;;;;4991170;28;20186;-68
2023/04/13 00:43:19;;;;;;;2.40;1.13;;;;;;;;;;4989977;28;20179;-68
2023/04/13 00:45:45;;;;;;;3.43;1.30;;;;;;;;;;4991575;28;20231;-68
2023/04/13 00:48:11;;;;;;;1.53;1.20;;;;;;;;;;4986129;28;20282;-68
2023/04/13 00:50:37;;;;;;;1.63;1.23;;;;;;;;;;4991669;28;20676;-68
2023/04/13 00:53:03;;;;;;;1.93;1.43;;;;;;;;;;4990525;28;20270;-68
2023/04/13 00:55:28;;;;;;;1.80;1.43;;;;;;;;;;4990866;28;20175;-68
2023/04/13 00:57:54;;;;;;;1.37;1.23;;;;;;;;;;4990225;28;20247;-68
2023/04/13 01:00:19;;;;;;;2.87;1.03;;;;;;;;;;4989690;28;20638;-68
2023/04/13 01:02:44;;;;;;;2.67;1.40;;;;;;;;;;4991680;28;20214;-68
2023/04/13 01:05:15;;;;;;;2.60;1.20;;;;;;;;;;4989831;28;20171;-68
2023/04/13 01:07:47;;;;;;;1.50;1.03;;;;;;;;;;4990648;28;20536;-68
2023/04/13 01:10:19;;;;;;;1.83;1.23;;;;;;;;;;4983884;28;20189;-69
2023/04/13 01:12:57;;;;;;;2.37;1.50;;;;;;;;;;4985048;28;20179;-68
2023/04/13 01:15:22;;;;;;;1.83;1.70;;;;;;;;;;4991590;28;20167;-68
2023/04/13 01:17:56;;;;;;;2.47;2.27;;;;;;;;;;4991426;28;20301;-68
2023/04/13 01:20:23;;;;;;;2.67;2.23;;;;;;;;;;4991186;28;20174;-68
2023/04/13 01:22:49;;;;;;;3.30;1.90;;;;;;;;;;4990073;28;20179;-68
2023/04/13 01:25:41;;;;;;;5.23;2.10;;;;;;;;;;4990992;28;20171;-68
2023/04/13 01:28:16;;;;;;;3.97;1.87;;;;;;;;;;4967684;28;20212;-68
2023/04/13 01:30:43;;;;;;;4.47;1.87;;;;;;;;;;4990180;28;20194;-68
2023/04/13 01:33:09;;;;;;;5.30;2.20;;;;;;;;;;4989991;28;20188;-68
2023/04/13 01:35:35;;;;;;;1.70;1.60;;;;;;;;;;4991039;28;20266;-68
2023/04/13 01:38:01;;;;;;;4.57;1.47;;;;;;;;;;4987758;28;20211;-68
2023/04/13 01:40:27;;;;;;;3.33;1.80;;;;;;;;;;4983291;28;20175;-68
2023/04/13 01:42:52;;;;;;;3.67;1.53;;;;;;;;;;4988507;28;20267;-68
2023/04/13 01:45:18;;;;;;;2.97;1.53;;;;;;;;;;4989345;28;20266;-68
2023/04/13 01:47:51;;;;;;;2.77;1.37;;;;;;;;;;4992918;28;20229;-68
2023/04/13 01:50:27;;;;;;;3.03;1.40;;;;;;;;;;4994730;28;20182;-68
2023/04/13 01:52:54;;;;;;;5.13;2.17;;;;;;;;;;4991252;28;20175;-68
2023/04/13 01:55:21;;;;;;;1.37;1.00;;;;;;;;;;4993423;28;20175;-68
2023/04/13 01:57:47;;;;;;;1.30;0.90;;;;;;;;;;4994011;28;20615;-68
2023/04/13 02:00:14;;;;;;;1.13;0.70;;;;;;;;;;4994325;28;20195;-68
2023/04/13 02:02:40;;;;;;;2.00;0.70;;;;;;;;;;4994943;28;20180;-68
2023/04/13 02:05:08;;;;;;;2.33;0.70;;;;;;;;;;4994578;28;20188;-68
2023/04/13 02:07:33;;;;;;;2.50;0.80;;;;;;;;;;4993150;28;20211;-68
2023/04/13 02:09:58;;;;;;;0.50;0.50;;;;;;;;;;4993372;28;20207;-68
2023/04/13 02:12:24;;;;;;;2.43;0.67;;;;;;;;;;4979742;28;20183;-68
2023/04/13 02:14:49;;;;;;;0.50;0.50;;;;;;;;;;4994543;28;20363;-68
2023/04/13 02:17:14;;;;;;;3.13;0.90;;;;;;;;;;4994867;28;20198;-68
2023/04/13 02:19:39;;;;;;;2.80;1.00;;;;;;;;;;4992907;28;20187;-68
2023/04/13 02:22:06;;;;;;;4.33;1.10;;;;;;;;;;4991049;28;20205;-68
2023/04/13 02:24:31;;;;;;;3.97;1.20;;;;;;;;;;4994165;28;20172;-68
2023/04/13 02:26:57;;;;;;;3.33;1.40;;;;;;;;;;4990362;28;20234;-68
2023/04/13 02:29:22;;;;;;;2.40;1.27;;;;;;;;;;4994203;28;20636;-68
2023/04/13 02:31:48;;;;;;;2.50;1.50;;;;;;;;;;4995134;28;20174;-68
2023/04/13 02:34:13;;;;;;;1.83;1.20;;;;;;;;;;4993459;28;20180;-68
2023/04/13 02:36:39;;;;;;;4.00;1.60;;;;;;;;;;4992635;28;20178;-68
2023/04/13 02:39:04;;;;;;;2.37;1.37;;;;;;;;;;4993934;28;20200;-68
2023/04/13 02:41:30;;;;;;;3.17;1.30;;;;;;;;;;4993257;28;20187;-67
2023/04/13 02:43:55;;;;;;;3.90;1.37;;;;;;;;;;4992157;28;20191;-67
2023/04/13 02:46:21;;;;;;;4.27;1.23;;;;;;;;;;4994284;28;20180;-68
2023/04/13 02:48:46;;;;;;;1.37;1.03;;;;;;;;;;4991995;28;20258;-68
2023/04/13 02:51:12;;;;;;;2.23;1.00;;;;;;;;;;4992533;28;20184;-68
2023/04/13 02:53:37;;;;;;;3.13;1.30;;;;;;;;;;4994010;28;20267;-68
2023/04/13 02:56:02;;;;;;;5.20;1.30;;;;;;;;;;4993843;28;20312;-68
2023/04/13 02:58:30;;;;;;;3.40;0.80;;;;;;;;;;4993237;28;20199;-68
2023/04/13 03:00:55;;;;;;;4.23;1.20;;;;;;;;;;4989575;28;20184;-68
2023/04/13 03:03:20;;;;;;;2.10;0.83;;;;;;;;;;4983349;28;20182;-68
2023/04/13 03:05:49;;;;;;;3.93;0.83;;;;;;;;;;4990638;28;20562;-68
2023/04/13 03:08:16;;;;;;;4.10;0.77;;;;;;;;;;5007959;23;20239;-77
2023/04/13 03:10:42;;;;;;;4.43;0.90;;;;;;;;;;5001415;28;20180;-77
2023/04/13 03:13:07;;;;;;;3.37;1.57;;;;;;;;;;5024295;28;20206;-77
2023/04/13 03:15:32;;;;;;;6.00;1.00;;;;;;;;;;5014868;28;20247;-77
2023/04/13 03:17:58;;;;;;;2.97;1.17;;;;;;;;;;5011777;28;20206;-78
2023/04/13 03:20:24;;;;;;;2.77;1.00;;;;;;;;;;5012110;28;20172;-78
2023/04/13 03:22:52;;;;;;;2.23;1.10;;;;;;;;;;5011477;28;20188;-78
2023/04/13 03:25:17;;;;;;;2.53;1.03;;;;;;;;;;5009987;28;20183;-78
2023/04/13 03:27:42;;;;;;;2.70;1.00;;;;;;;;;;5009907;28;20179;-78
2023/04/13 03:30:08;;;;;;;3.97;1.10;;;;;;;;;;5010862;28;20175;-78
2023/04/13 03:32:33;;;;;;;3.90;1.30;;;;;;;;;;5010309;28;20740;-78
2023/04/13 03:34:58;;;;;;;3.17;1.13;;;;;;;;;;5012281;28;20175;-78
2023/04/13 03:37:28;;;;;;;7.97;1.40;;;;;;;;;;5012568;28;20196;-78
2023/04/13 03:39:53;;;;;;;4.83;1.20;;;;;;;;;;5007823;28;20207;-78
2023/04/13 03:42:19;;;;;;;4.00;1.00;;;;;;;;;;5010287;28;20176;-78
2023/04/13 03:44:44;;;;;;;3.00;1.00;;;;;;;;;;5001246;28;20680;-78
2023/04/13 03:47:10;;;;;;;3.53;1.43;;;;;;;;;;5005796;28;20202;-78
2023/04/13 03:49:35;;;;;;;4.90;1.27;;;;;;;;;;5004617;28;20239;-78
2023/04/13 03:52:00;;;;;;;9.97;1.47;;;;;;;;;;5005361;28;20260;-78
2023/04/13 03:54:25;;;;;;;4.53;1.57;;;;;;;;;;5007121;28;20172;-78
2023/04/13 03:56:51;;;;;;;9.40;1.90;;;;;;;;;;5004617;28;20182;-78
2023/04/13 03:59:16;;;;;;;3.63;0.80;;;;;;;;;;5000409;28;20828;-78
2023/04/13 04:01:41;;;;;;;5.67;1.10;;;;;;;;;;5004653;28;20179;-78
2023/04/13 04:04:06;;;;;;;3.43;1.00;;;;;;;;;;5000605;28;20184;-78
2023/04/13 04:06:31;;;;;;;3.07;1.53;;;;;;;;;;5001547;28;20176;-78
2023/04/13 04:08:57;;;;;;;5.57;1.30;;;;;;;;;;4993567;28;20230;-78
2023/04/13 04:11:22;;;;;;;5.17;1.33;;;;;;;;;;4997385;28;20514;-78
2023/04/13 04:13:47;;;;;;;2.70;1.07;;;;;;;;;;4995539;28;20642;-79
2023/04/13 04:16:13;;;;;;;3.03;1.50;;;;;;;;;;4995039;28;20176;-78
2023/04/13 04:18:38;;;;;;;6.30;1.00;;;;;;;;;;4993865;28;20191;-78
2023/04/13 04:21:03;;;;;;;3.97;1.40;;;;;;;;;;4995899;28;20176;-78
2023/04/13 04:23:29;;;;;;;2.40;1.30;;;;;;;;;;4988982;28;20180;-78
2023/04/13 04:25:54;;;;;;;3.87;1.37;;;;;;;;;;4995103;28;20186;-78
2023/04/13 04:28:19;;;;;;;11.60;3.37;;;;;;;;;;4988262;28;20210;-78
2023/04/13 04:30:52;;;;;;;5.53;1.40;;;;;;;;;;4993978;28;20530;-78
2023/04/13 04:33:21;;;;;;;5.27;1.63;;;;;;;;;;4991626;28;20650;-78
2023/04/13 04:35:49;;;;;;;4.93;1.27;;;;;;;;;;4993175;28;20168;-78
2023/04/13 04:38:16;;;;;;;11.67;1.87;;;;;;;;;;4992788;28;20200;-78
2023/04/13 04:40:44;;;;;;;7.73;1.73;;;;;;;;;;4993093;28;20271;-78
2023/04/13 04:43:09;;;;;;;3.93;1.50;;;;;;;;;;4990420;28;20250;-78
2023/04/13 04:45:35;;;;;;;4.17;1.37;;;;;;;;;;4992137;28;20642;-77
2023/04/13 04:48:02;;;;;;;3.87;1.50;;;;;;;;;;4994362;28;20274;-78
2023/04/13 04:50:28;;;;;;;3.97;1.50;;;;;;;;;;4985686;28;20200;-78
2023/04/13 04:52:53;;;;;;;7.23;1.47;;;;;;;;;;4980186;28;20206;-78
2023/04/13 04:55:18;;;;;;;3.30;1.47;;;;;;;;;;4992566;28;20198;-78
2023/04/13 04:57:44;;;;;;;6.53;1.50;;;;;;;;;;4992956;28;20191;-78
2023/04/13 05:00:14;;;;;;;7.43;1.97;;;;;;;;;;4993435;28;20642;-78
2023/04/13 05:02:39;;;;;;;7.00;1.30;;;;;;;;;;4995858;28;20168;-79
2023/04/13 05:05:05;;;;;;;3.77;1.50;;;;;;;;;;4995542;28;20568;-79
2023/04/13 05:07:31;;;;;;;11.43;1.53;;;;;;;;;;4995342;28;20216;-78
2023/04/13 05:09:56;;;;;;;3.07;2.07;;;;;;;;;;4990987;28;20577;-78
2023/04/13 05:12:21;;;;;;;5.00;1.30;;;;;;;;;;4993246;28;20176;-77
2023/04/13 05:14:47;;;;;;;3.13;1.50;;;;;;;;;;4993789;28;20647;-78
2023/04/13 05:17:16;;;;;;;4.00;1.73;;;;;;;;;;4992984;28;20565;-78
2023/04/13 05:19:42;;;;;;;4.27;1.47;;;;;;;;;;4996393;28;20254;-78
2023/04/13 05:22:07;;;;;;;3.83;1.23;;;;;;;;;;4995739;28;20210;-78
2023/04/13 05:24:32;;;;;;;5.27;1.83;;;;;;;;;;4994819;28;20183;-78
2023/04/13 05:26:57;;;;;;;5.83;1.80;;;;;;;;;;4995121;28;20175;-78
2023/04/13 05:29:22;;;;;;;4.77;1.33;;;;;;;;;;4994133;28;20204;-77
2023/04/13 05:31:48;;;;;;;5.77;1.30;;;;;;;;;;4995321;28;20175;-77
2023/04/13 05:34:13;;;;;;;2.93;0.97;;;;;;;;;;4994876;28;20179;-77
2023/04/13 05:36:38;;;;;;;3.17;1.37;;;;;;;;;;4992593;28;20167;-77
2023/04/13 05:39:03;;;;;;;4.07;0.73;;;;;;;;;;4993632;28;20192;-78
2023/04/13 05:41:28;;;;;;;2.93;1.00;;;;;;;;;;4994242;28;20238;-78
2023/04/13 05:43:54;;;;;;;2.57;1.07;;;;;;;;;;4990531;28;20171;-78
2023/04/13 05:46:19;;;;;;;6.90;1.70;;;;;;;;;;4992955;28;20191;-78
2023/04/13 05:48:45;;;;;;;1.60;1.20;;;;;;;;;;4992861;28;20253;-78
2023/04/13 05:51:11;;;;;;;7.70;1.33;;;;;;;;;;4992905;28;20194;-78
2023/04/13 05:53:36;;;;;;;3.40;0.93;;;;;;;;;;4993653;28;20168;-78
2023/04/13 05:56:02;;;;;;;1.63;0.80;;;;;;;;;;4994784;28;20176;-78
2023/04/13 05:58:27;;;;;;;2.27;0.77;;;;;;;;;;4993242;28;20206;-78
2023/04/13 06:00:53;;;;;;;3.23;0.83;;;;;;;;;;4990236;28;20176;-78
2023/04/13 06:03:19;;;;;;;1.00;0.60;;;;;;;;;;4992646;28;20274;-77
2023/04/13 06:05:44;;;;;;;3.43;1.27;;;;;;;;;;4990852;28;20238;-78
2023/04/13 06:08:10;;;;;;;2.17;0.90;;;;;;;;;;4992221;28;20215;-78
2023/04/13 06:10:36;;;;;;;2.10;1.30;;;;;;;;;;4992154;28;20654;-78
2023/04/13 06:13:01;;;;;;;6.37;1.40;;;;;;;;;;4994062;28;20207;-78
2023/04/13 06:15:26;;;;;;;1.73;1.37;;;;;;;;;;4990451;28;20179;-78
2023/04/13 06:17:54;;;;;;;2.17;0.87;;;;;;;;;;4991248;28;20342;-78
2023/04/13 06:20:20;;;;;;;2.67;1.33;;;;;;;;;;4992808;28;20625;-77
2023/04/13 06:22:45;;;;;;;7.93;3.30;;;;;;;;;;4990264;28;20207;-77
2023/04/13 06:25:11;;;;;;;6.57;1.60;;;;;;;;;;4991762;28;20216;-77
2023/04/13 06:27:36;;;;;;;2.60;0.90;;;;;;;;;;4993168;28;20195;-77
2023/04/13 06:30:03;;;;;;;3.10;1.13;;;;;;;;;;4993073;28;20210;-77
2023/04/13 06:32:28;;;;;;;5.70;1.30;;;;;;;;;;4995970;28;20188;-78
2023/04/13 06:34:53;;;;;;;4.13;1.10;;;;;;;;;;5018661;28;20186;-77
2023/04/13 06:37:18;;;;;;;2.23;1.10;;;;;;;;;;5004103;28;20195;-77
2023/04/13 06:39:44;;;;;;;5.03;1.10;;;;;;;;;;4995887;28;20183;-77
2023/04/13 06:42:09;;;;;;;5.07;2.10;;;;;;;;;;4996069;28;20191;-77
2023/04/13 06:44:34;;;;;;;8.40;1.60;;;;;;;;;;4990893;28;20251;-77
2023/04/13 06:46:59;;;;;;;7.93;1.73;;;;;;;;;;4997592;28;20282;-77
2023/04/13 06:49:25;;;;;;;5.27;1.30;;;;;;;;;;4991063;28;20249;-78
2023/04/13 06:51:50;;;;;;;6.33;1.60;;;;;;;;;;4996006;28;20204;-78
2023/04/13 06:54:15;;;;;;;5.70;2.30;;;;;;;;;;4995429;28;20186;-78
2023/04/13 06:56:40;;;;;;;6.97;2.27;;;;;;;;;;4996424;28;20195;-77
2023/04/13 06:59:06;;;;;;;6.23;1.63;;;;;;;;;;4998161;28;20202;-78
2023/04/13 07:01:31;;;;;;;4.77;1.30;;;;;;;;;;4991521;28;20175;-78
2023/04/13 07:03:57;;;;;;;3.97;1.73;;;;;;;;;;5004660;28;20164;-77
2023/04/13 07:06:22;;;;;;;9.53;1.60;;;;;;;;;;4994648;28;20179;-77
2023/04/13 07:08:48;;;;;;;12.60;1.87;;;;;;;;;;4996846;28;20207;-77
2023/04/13 07:11:13;;;;;;;3.90;1.60;;;;;;;;;;4994909;28;20718;-77
2023/04/13 07:13:39;;;;;;;8.70;2.30;;;;;;;;;;4986901;28;20174;-76
2023/04/13 07:16:07;;;;;;;9.77;1.90;;;;;;;;;;4987652;28;20207;-76
2023/04/13 07:18:32;;;;;;;6.33;1.90;;;;;;;;;;4989755;28;20629;-77
2023/04/13 07:20:57;;;;;;;3.63;1.40;;;;;;;;;;4991146;28;20176;-77
2023/04/13 07:23:23;;;;;;;10.93;1.97;;;;;;;;;;4993853;28;20179;-77
2023/04/13 07:25:48;;;;;;;13.83;2.20;;;;;;;;;;4988724;28;20187;-77
2023/04/13 07:28:13;;;;;;;11.57;1.97;;;;;;;;;;4994302;28;20204;-77
2023/04/13 07:30:42;;;;;;;7.10;2.00;;;;;;;;;;4990605;28;20619;-76
2023/04/13 07:33:07;;;;;;;8.67;2.63;;;;;;;;;;4991596;28;20172;-76
2023/04/13 07:35:32;;;;;;;15.03;2.20;;;;;;;;;;4992924;28;20182;-75
2023/04/13 07:37:58;;;;;;;10.40;2.83;;;;;;;;;;4992496;28;20203;-75
2023/04/13 07:40:23;;;;;;;9.47;2.17;;;;;;;;;;4989728;28;20187;-75
2023/04/13 07:42:48;;;;;;;11.70;2.53;;;;;;;;;;4993287;28;20176;-75
2023/04/13 07:45:14;;;;;;;9.37;3.03;;;;;;;;;;4990828;28;20207;-74
2023/04/13 07:47:40;;;;;;;5.50;2.00;;;;;;;;;;4993154;28;20243;-75
2023/04/13 07:50:05;;;;;;;9.13;3.13;;;;;;;;;;4993506;28;20203;-75
2023/04/13 07:52:31;;;;;;;4.87;1.70;;;;;;;;;;4993666;28;20183;-75
2023/04/13 07:54:56;;;;;;;10.03;2.03;;;;;;;;;;4994626;28;20247;-75
2023/04/13 07:57:22;;;;;;;11.27;2.73;;;;;;;;;;4994952;28;20210;-75
2023/04/13 07:59:47;;;;;;;10.97;1.83;;;;;;;;;;4994383;28;20199;-75
2023/04/13 08:02:12;;;;;;;16.87;2.37;;;;;;;;;;4993118;28;20175;-76
2023/04/13 08:04:38;;;;;;;8.70;2.10;;;;;;;;;;4994145;28;20172;-76
2023/04/13 08:07:03;;;;;;;13.07;3.27;;;;;;;;;;4994625;28;20172;-76
2023/04/13 08:09:31;;;;;;;15.20;3.33;;;;;;;;;;4992539;28;20794;-76
2023/04/13 08:11:56;;;;;;;10.67;1.80;;;;;;;;;;4992931;28;20172;-76
2023/04/13 08:14:21;;;;;;;9.13;1.73;;;;;;;;;;4992423;28;20187;-76
2023/04/13 08:16:46;;;;;;;6.97;1.70;;;;;;;;;;4992991;28;20171;-76
2023/04/13 08:19:12;;;;;;;6.13;1.33;;;;;;;;;;4993138;28;20681;-77
2023/04/13 08:21:39;;;;;;;5.43;1.47;;;;;;;;;;4988354;28;20191;-76
2023/04/13 08:24:05;;;;;;;7.73;1.70;;;;;;;;;;4989443;28;20187;-78
2023/04/13 08:26:30;;;;;;;11.77;2.20;;;;;;;;;;4990526;28;20890;-77
2023/04/13 08:28:56;;;;;;;5.60;1.43;;;;;;;;;;4999178;28;20305;-77
2023/04/13 08:31:21;;;;;;;5.43;1.67;;;;;;;;;;4994734;28;20211;-77
2023/04/13 08:33:46;;;;;;;5.90;1.20;;;;;;;;;;4993438;28;20172;-76
2023/04/13 08:36:11;;;;;;;7.07;1.50;;;;;;;;;;4994212;28;20226;-76
2023/04/13 08:38:37;;;;;;;5.23;1.23;;;;;;;;;;4985523;28;20210;-78
2023/04/13 08:41:02;;;;;;;8.63;1.80;;;;;;;;;;4990561;28;20195;-77
2023/04/13 08:43:27;;;;;;;4.50;1.63;;;;;;;;;;4985878;28;20186;-77
2023/04/13 08:45:53;;;;;;;10.43;2.30;;;;;;;;;;4993888;28;20168;-77
2023/04/13 08:48:18;;;;;;;7.23;2.17;;;;;;;;;;4993268;28;20208;-77
2023/04/13 08:50:44;;;;;;;8.73;2.83;;;;;;;;;;4992925;28;20168;-77
2023/04/13 08:53:09;;;;;;;4.83;1.90;;;;;;;;;;4993951;28;20176;-77
2023/04/13 08:55:41;;;;;;;5.40;2.33;;;;;;;;;;4991925;28;20562;-77
2023/04/13 08:58:07;;;;;;;8.73;1.47;;;;;;;;;;4985599;28;20503;-77
2023/04/13 09:00:34;;;;;;;8.73;1.60;;;;;;;;;;5006184;28;20563;-76
2023/04/13 09:03:01;;;;;;;8.47;1.80;;;;;;;;;;4988252;28;20179;-76
2023/04/13 09:05:27;;;;;;;4.37;1.47;;;;;;;;;;4991880;28;20277;-76
2023/04/13 09:07:55;;;;;;;6.23;1.57;;;;;;;;;;5001380;23;21969;-66
2023/04/13 09:10:21;;;;;;;11.87;2.47;;;;;;;;;;4989934;28;20188;-67
2023/04/13 09:12:46;;;;;;;3.77;1.77;;;;;;;;;;4991852;28;20700;-66
2023/04/13 09:15:13;;;;;;;5.80;1.43;;;;;;;;;;4989555;28;20645;-66
2023/04/13 09:17:38;;;;;;;3.13;1.17;;;;;;;;;;4990377;28;20273;-67
2023/04/13 09:20:17;;;;;;;7.33;1.77;;;;;;;;;;4991543;28;20641;-67
2023/04/13 09:22:42;;;;;;;9.13;2.07;;;;;;;;;;4991152;28;20262;-68
2023/04/13 09:25:20;;;;;;;4.47;1.27;;;;;;;;;;4991624;28;20619;-68
2023/04/13 09:27:45;;;;;;;11.27;2.20;;;;;;;;;;4986648;28;20207;-67
2023/04/13 09:30:11;;;;;;;5.20;1.63;;;;;;;;;;4991033;28;20310;-68
2023/04/13 09:32:36;;;;;;;5.57;1.23;;;;;;;;;;4987403;28;20206;-67
2023/04/13 09:35:07;;;;;;;6.40;1.33;;;;;;;;;;4991377;28;20556;-67
2023/04/13 09:37:35;;;;;;;7.80;1.63;;;;;;;;;;4989334;28;20298;-67
2023/04/13 09:40:09;;;;;;;5.57;1.27;;;;;;;;;;4989464;28;20183;-67
2023/04/13 09:42:34;;;;;;;4.87;1.73;;;;;;;;;;4991563;28;20194;-67
2023/04/13 09:44:59;;;;;;;4.53;1.40;;;;;;;;;;4980884;28;20270;-67
2023/04/13 09:47:33;;;;;;;6.90;1.53;;;;;;;;;;4990169;28;20233;-67
2023/04/13 09:49:58;;;;;;;9.53;1.30;;;;;;;;;;4991272;28;20305;-67
2023/04/13 09:52:24;;;;;;;4.60;1.40;;;;;;;;;;4991293;28;20275;-67
2023/04/13 09:54:50;;;;;;;8.47;1.23;;;;;;;;;;4991288;28;20200;-67
2023/04/13 09:57:25;;;;;;;4.40;1.40;;;;;;;;;;4991526;28;20946;-67
2023/04/13 09:59:50;;;;;;;10.90;1.67;;;;;;;;;;4990959;28;20183;-67
2023/04/13 10:02:17;;;;;;;8.23;1.97;;;;;;;;;;4990798;28;20194;-67
2023/04/13 10:04:42;;;;;;;7.23;1.70;;;;;;;;;;4989671;28;20191;-67
2023/04/13 10:07:09;;;;;;;9.67;1.33;;;;;;;;;;4992198;28;20190;-67
2023/04/13 10:09:35;;;;;;;9.73;1.67;;;;;;;;;;4993168;28;20333;-67
2023/04/13 10:12:02;;;;;;;6.60;1.37;;;;;;;;;;4995148;28;20693;-67
2023/04/13 10:14:31;;;;;;;6.63;1.30;;;;;;;;;;4994730;28;20191;-67
2023/04/13 10:17:03;;;;;;;3.37;1.47;;;;;;;;;;4986278;28;20184;-68
2023/04/13 10:19:31;;;;;;;5.67;1.43;;;;;;;;;;4994071;28;20685;-66
2023/04/13 10:21:57;;;;;;;5.33;1.50;;;;;;;;;;4993655;28;20172;-67
2023/04/13 10:24:22;;;;;;;10.63;1.83;;;;;;;;;;4994837;28;20190;-67
2023/04/13 10:26:53;;;;;;;5.37;1.83;;;;;;;;;;4993735;28;20175;-67
2023/04/13 10:29:25;;;;;;;11.73;2.13;;;;;;;;;;4991662;28;20200;-68
2023/04/13 10:31:51;;;;;;;7.10;1.63;;;;;;;;;;4995306;28;20199;-66
2023/04/13 10:34:22;;;;;;;11.97;1.60;;;;;;;;;;4995148;28;20211;-66
2023/04/13 10:36:50;;;;;;;2.60;1.50;;;;;;;;;;4987685;28;20643;-66
2023/04/13 10:39:22;;;;;;;12.53;1.83;;;;;;;;;;4992353;28;20294;-67
2023/04/13 10:41:57;;;;;;;3.87;1.50;;;;;;;;;;4990496;28;20259;-66
2023/04/13 10:44:22;;;;;;;7.83;1.83;;;;;;;;;;4993321;28;20186;-67
2023/04/13 10:46:50;;;;;;;11.10;1.50;;;;;;;;;;4993767;28;20306;-66
2023/04/13 10:49:16;;;;;;;5.57;1.97;;;;;;;;;;4993963;28;20203;-66
2023/04/13 10:51:42;;;;;;;4.73;1.40;;;;;;;;;;4994180;28;20210;-66
2023/04/13 10:54:08;;;;;;;8.65;1.60;;;;;;;;;;4994407;28;20226;-66
2023/04/13 10:56:34;;;;;;;8.93;1.77;;;;;;;;;;4992589;28;20551;-67
2023/04/13 10:58:59;;;;;;;8.90;1.57;;;;;;;;;;4993900;28;20199;-67
2023/04/13 11:01:25;;;;;;;2.50;1.53;;;;;;;;;;4992346;28;20183;-67
2023/04/13 11:03:51;;;;;;;10.30;1.60;;;;;;;;;;4987039;28;20548;-67
2023/04/13 11:06:16;;;;;;;7.67;1.33;;;;;;;;;;4993546;28;20182;-67
2023/04/13 11:08:42;;;;;;;5.13;1.52;;;;;;;;;;4993457;28;20211;-67
2023/04/13 11:11:09;;;;;;;5.20;1.65;;;;;;;;;;4992343;28;20206;-67
2023/04/13 11:13:42;;;;;;;8.13;1.60;;;;;;;;;;4993299;28;20190;-67
2023/04/13 11:16:07;;;;;;;4.65;1.45;;;;;;;;;;4993373;28;20192;-67
2023/04/13 11:18:32;;;;;;;6.57;1.90;;;;;;;;;;4991606;28;20195;-68
2023/04/13 11:20:58;;;;;;;7.22;1.50;;;;;;;;;;4990065;28;20723;-67
2023/04/13 11:23:23;;;;;;;7.13;1.45;;;;;;;;;;4993722;28;20179;-67
2023/04/13 11:25:53;;;;;;;9.50;2.30;;;;;;;;;;4993304;28;20176;-67
2023/04/13 11:28:19;;;;;;;8.70;1.13;;;;;;;;;;4993065;28;20294;-67
2023/04/13 11:30:54;;;;;;;7.15;1.55;;;;;;;;;;4993153;28;20266;-67
2023/04/13 11:33:23;;;;;;;7.93;1.80;;;;;;;;;;4993582;28;20182;-67
2023/04/13 11:35:50;;;;;;;12.75;2.15;;;;;;;;;;4989124;28;20187;-67
2023/04/13 11:38:19;;;;;;;8.23;1.80;;;;;;;;;;4990700;28;20196;-67
2023/04/13 11:40:46;;;;;;;8.65;1.67;;;;;;;;;;4991914;28;20258;-67
2023/04/13 11:43:13;;;;;;;8.73;1.38;;;;;;;;;;4988353;28;20172;-67
2023/04/13 11:45:38;;;;;;;5.22;1.17;;;;;;;;;;4991185;28;20662;-67
2023/04/13 11:48:06;;;;;;;6.05;1.55;;;;;;;;;;4992633;28;20230;-67
2023/04/13 11:50:32;;;;;;;6.60;1.55;;;;;;;;;;4993183;28;20632;-67
2023/04/13 11:52:57;;;;;;;12.73;2.03;;;;;;;;;;4987761;28;20275;-68
2023/04/13 11:55:22;;;;;;;5.95;1.30;;;;;;;;;;4983860;28;20254;-68
2023/04/13 11:57:48;;;;;;;8.88;2.05;;;;;;;;;;4990263;28;20204;-68
2023/04/13 12:00:20;;;;;;;2.67;1.30;;;;;;;;;;4992404;28;20206;-68
2023/04/13 12:02:45;;;;;;;7.85;1.55;;;;;;;;;;4990998;28;20725;-68
2023/04/13 12:05:21;;;;;;;6.78;1.60;;;;;;;;;;4991168;28;20266;-68
2023/04/13 12:07:46;;;;;;;5.50;1.10;;;;;;;;;;4992607;28;20318;-67
2023/04/13 12:10:18;;;;;;;4.95;1.42;;;;;;;;;;4982435;28;20229;-67
2023/04/13 12:12:44;;;;;;;9.95;1.45;;;;;;;;;;4992162;28;20207;-67
2023/04/13 12:15:09;;;;;;;6.75;1.52;;;;;;;;;;4991586;28;20207;-66
2023/04/13 12:17:35;;;;;;;6.95;2.58;;;;;;;;;;4992560;28;20234;-66
2023/04/13 12:20:01;;;;;;;9.45;1.55;;;;;;;;;;4992691;28;20184;-66
2023/04/13 12:22:36;;;;;;;7.65;1.55;;;;;;;;;;4992327;28;20637;-67
2023/04/13 12:25:11;;;;;;;5.78;1.50;;;;;;;;;;4985742;28;20249;-67
2023/04/13 12:27:40;;;;;;;8.82;1.92;;;;;;;;;;4992122;28;20231;-66
2023/04/13 12:30:08;;;;;;;8.07;1.95;;;;;;;;;;4989998;28;20211;-67
2023/04/13 12:32:37;;;;;;;6.60;1.17;;;;;;;;;;4991267;28;20234;-67
2023/04/13 12:35:03;;;;;;;5.25;1.75;;;;;;;;;;4992213;28;20180;-67
2023/04/13 12:37:28;;;;;;;5.32;1.20;;;;;;;;;;4992165;28;20183;-67
2023/04/13 12:39:53;;;;;;;4.80;1.45;;;;;;;;;;4983866;28;20191;-67
2023/04/13 12:42:19;;;;;;;9.77;2.78;;;;;;;;;;4991748;28;20254;-67
2023/04/13 12:44:44;;;;;;;3.30;1.30;;;;;;;;;;4987314;28;20226;-67
2023/04/13 12:47:09;;;;;;;3.42;1.13;;;;;;;;;;4992344;28;20202;-67
2023/04/13 12:49:35;;;;;;;4.95;1.45;;;;;;;;;;4991271;28;20204;-67
2023/04/13 12:52:00;;;;;;;6.07;1.48;;;;;;;;;;4992118;28;20225;-67
2023/04/13 12:54:27;;;;;;;6.90;1.40;;;;;;;;;;4991892;28;20322;-67
2023/04/13 12:56:52;;;;;;;6.40;0.95;;;;;;;;;;4991875;28;20221;-67
2023/04/13 12:59:20;;;;;;;5.20;0.90;;;;;;;;;;4991325;28;20659;-68
2023/04/13 13:01:45;;;;;;;6.25;1.83;;;;;;;;;;4985268;28;20186;-67
2023/04/13 13:04:10;;;;;;;7.18;1.23;;;;;;;;;;4990541;28;20270;-67
2023/04/13 13:06:36;;;;;;;4.25;1.58;;;;;;;;;;4991189;28;20563;-68
2023/04/13 13:09:01;;;;;;;8.70;1.33;;;;;;;;;;4990652;28;20211;-67
2023/04/13 13:11:26;;;;;;;8.55;1.65;;;;;;;;;;4975751;28;20243;-67
2023/04/13 13:13:51;;;;;;;11.38;1.88;;;;;;;;;;4987732;28;20179;-67
2023/04/13 13:16:18;;;;;;;3.13;1.48;;;;;;;;;;4991403;28;20258;-67
2023/04/13 13:18:43;;;;;;;6.65;1.20;;;;;;;;;;4992800;28;20201;-67
2023/04/13 13:21:08;;;;;;;4.18;1.20;;;;;;;;;;4991616;28;20179;-68
2023/04/13 13:23:33;;;;;;;8.68;1.65;;;;;;;;;;4990974;28;20692;-68
2023/04/13 13:25:59;;;;;;;6.40;1.15;;;;;;;;;;4990026;28;20191;-67
2023/04/13 13:28:24;;;;;;;3.90;1.23;;;;;;;;;;4990551;28;20222;-67
2023/04/13 13:30:49;;;;;;;5.93;1.13;;;;;;;;;;4991349;28;20172;-67
2023/04/13 13:33:15;;;;;;;3.65;1.10;;;;;;;;;;4989858;28;20175;-68
2023/04/13 13:35:40;;;;;;;4.47;1.48;;;;;;;;;;4989532;28;20198;-67
2023/04/13 13:38:05;;;;;;;4.95;1.50;;;;;;;;;;4990686;28;20562;-67
2023/04/13 13:40:31;;;;;;;6.15;1.52;;;;;;;;;;4990599;28;20305;-66
2023/04/13 13:42:56;;;;;;;4.03;1.10;;;;;;;;;;4993633;28;20195;-67
2023/04/13 13:45:21;;;;;;;8.55;1.40;;;;;;;;;;4995235;28;20226;-67
2023/04/13 13:47:51;;;;;;;6.38;1.63;;;;;;;;;;4995625;28;20234;-66
2023/04/13 13:50:17;;;;;;;5.70;1.42;;;;;;;;;;4993455;28;20707;-67
2023/04/13 13:52:42;;;;;;;5.97;1.10;;;;;;;;;;4995645;28;20175;-67
2023/04/13 13:55:08;;;;;;;5.43;0.88;;;;;;;;;;4995008;28;20195;-67
2023/04/13 13:57:33;;;;;;;5.57;1.70;;;;;;;;;;4995373;28;20206;-67
2023/04/13 13:59:59;;;;;;;9.75;1.65;;;;;;;;;;4994701;28;20259;-67
2023/04/13 14:02:24;;;;;;;3.90;1.42;;;;;;;;;;4991434;28;20178;-67
2023/04/13 14:04:49;;;;;;;5.35;1.20;;;;;;;;;;4993701;28;20188;-67
2023/04/13 14:07:15;;;;;;;6.90;2.15;;;;;;;;;;4995345;28;20184;-66
2023/04/13 14:09:40;;;;;;;4.53;1.52;;;;;;;;;;4994137;28;20199;-67
2023/04/13 14:12:06;;;;;;;4.00;0.77;;;;;;;;;;4984011;28;20168;-67
2023/04/13 14:14:31;;;;;;;4.60;0.95;;;;;;;;;;4993062;28;20178;-67
2023/04/13 14:16:56;;;;;;;4.20;0.82;;;;;;;;;;4995412;28;20187;-67
2023/04/13 14:19:22;;;;;;;4.85;1.10;;;;;;;;;;4994670;28;20282;-68
2023/04/13 14:21:48;;;;;;;4.20;1.50;;;;;;;;;;4995302;28;20611;-67
2023/04/13 14:24:13;;;;;;;3.17;0.93;;;;;;;;;;4995044;28;20225;-67
2023/04/13 14:26:38;;;;;;;13.25;1.60;;;;;;;;;;4994838;28;20646;-67
2023/04/13 14:29:03;;;;;;;4.03;1.58;;;;;;;;;;4994657;28;20206;-67
2023/04/13 14:31:29;;;;;;;7.70;1.33;;;;;;;;;;4988830;28;20180;-67
2023/04/13 14:33:54;;;;;;;6.65;1.33;;;;;;;;;;4995102;28;20179;-67
2023/04/13 14:36:20;;;;;;;6.07;1.27;;;;;;;;;;4994511;28;20202;-67